Time;durP1;ratioP1;P1;durP2;ratioP2;P2;SDS_P1;SDS_P2;PMS_P1;PMS_P2;Temp;Humidity;BMP_temperature;BMP_pressure;BME280_temperature;BME280_humidity;BME280_pressure;Samples;Min_cycle;Max_cycle;Signal;HPM_P1;HPM_P2
2021/03/28 00:04:47;;;;;;;6.17;3.80;;;;;;;0.47;100.00;99463.97;3676453;79;43502;-22
2021/03/28 00:09:58;;;;;;;5.30;3.10;;;;;;;0.42;100.00;99457.56;3601102;81;43467;-23
2021/03/28 00:15:20;;;;;;;6.03;3.40;;;;;;;0.39;100.00;99464.33;3603950;80;44025;-22
2021/03/28 00:20:46;;;;;;;6.03;3.73;;;;;;;0.38;100.00;99460.43;3577508;81;43669;-22
2021/03/28 00:25:57;;;;;;;6.00;3.43;;;;;;;0.39;100.00;99467.45;3575595;81;43476;-22
2021/03/28 00:31:25;;;;;;;4.63;3.50;;;;;;;0.35;100.00;99469.84;3577884;81;43723;-23
2021/03/28 00:36:35;;;;;;;6.80;3.20;;;;;;;0.30;100.00;99464.28;3576931;83;43454;-23
2021/03/28 00:41:52;;;;;;;7.07;3.57;;;;;;;0.26;100.00;99459.19;3577097;82;43464;-22
2021/03/28 00:47:01;;;;;;;6.97;3.57;;;;;;;0.22;100.00;99456.30;3577211;81;43059;-23
2021/03/28 00:52:11;;;;;;;7.90;3.30;;;;;;;0.18;100.00;99465.31;3576708;81;43731;-22
2021/03/28 00:57:24;;;;;;;6.53;3.67;;;;;;;0.15;100.00;99466.32;3576006;81;44010;-22
2021/03/28 01:02:35;;;;;;;6.17;3.50;;;;;;;0.12;100.00;99476.58;3574051;81;43355;-22
2021/03/28 01:07:47;;;;;;;7.33;3.80;;;;;;;0.10;100.00;99468.30;3576700;81;44059;-23
2021/03/28 01:13:19;;;;;;;5.87;3.70;;;;;;;0.12;100.00;99471.27;3576526;81;44041;-23
2021/03/28 01:18:28;;;;;;;5.73;3.40;;;;;;;0.06;100.00;99460.96;3575826;81;43743;-22
2021/03/28 01:23:37;;;;;;;7.30;4.30;;;;;;;0.06;100.00;99460.13;3575026;81;44223;-23
2021/03/28 01:28:51;;;;;;;7.87;4.40;;;;;;;0.16;100.00;99465.39;3575417;81;43336;-22
2021/03/28 01:34:01;;;;;;;7.60;4.10;;;;;;;0.18;100.00;99456.88;3576309;81;42744;-22
2021/03/28 01:39:12;;;;;;;7.27;4.77;;;;;;;0.16;100.00;99456.12;3575434;81;44728;-24
2021/03/28 01:44:23;;;;;;;8.97;4.30;;;;;;;0.13;100.00;99458.90;3576435;81;44044;-24
2021/03/28 01:49:52;;;;;;;6.73;4.07;;;;;;;0.12;100.00;99451.87;3576635;81;43853;-22
2021/03/28 01:55:06;;;;;;;7.03;4.73;;;;;;;0.11;100.00;99452.80;3642649;80;43158;-22
2021/03/28 02:00:43;;;;;;;11.20;4.47;;;;;;;0.12;100.00;99466.45;3580842;81;44076;-24
2021/03/28 02:06:09;;;;;;;7.47;4.40;;;;;;;0.09;100.00;99457.30;3577253;81;43384;-22
2021/03/28 02:11:26;;;;;;;8.53;4.47;;;;;;;0.04;100.00;99454.02;3573091;81;42862;-22
2021/03/28 02:16:37;;;;;;;7.67;4.10;;;;;;;0.01;100.00;99448.38;3569612;81;43734;-25
2021/03/28 02:21:50;;;;;;;7.80;4.50;;;;;;;0.02;100.00;99445.28;3528694;82;43220;-22
2021/03/28 02:27:06;;;;;;;10.00;4.53;;;;;;;0.04;100.00;99448.72;3524876;82;44729;-22
2021/03/28 02:32:22;;;;;;;8.80;4.50;;;;;;;0.08;100.00;99441.02;3528267;82;43716;-25
2021/03/28 02:37:39;;;;;;;7.87;4.60;;;;;;;0.06;100.00;99446.39;3526270;82;43436;-24
2021/03/28 02:42:58;;;;;;;8.07;4.20;;;;;;;0.07;100.00;99463.14;3527474;82;42541;-24
2021/03/28 02:48:26;;;;;;;9.30;4.93;;;;;;;-0.02;100.00;99462.63;3526908;82;43156;-24
2021/03/28 02:53:38;;;;;;;8.33;5.00;;;;;;;0.10;100.00;99458.59;3526830;82;43444;-24
2021/03/28 02:59:05;;;;;;;7.00;4.20;;;;;;;0.10;100.00;99460.36;3528154;82;43368;-24
2021/03/28 03:04:21;;;;;;;8.27;4.60;;;;;;;0.13;100.00;99469.50;3527630;82;42802;-24
2021/03/28 03:09:32;;;;;;;7.10;4.60;;;;;;;0.12;100.00;99465.13;3530542;82;44689;-25
2021/03/28 03:15:06;;;;;;;10.47;4.53;;;;;;;0.20;100.00;99465.63;3528179;82;43036;-24
2021/03/28 03:20:47;;;;;;;11.90;5.00;;;;;;;0.29;100.00;99471.83;3527890;82;42909;-25
2021/03/28 03:26:18;;;;;;;8.60;5.40;;;;;;;0.39;100.00;99472.76;3518181;82;43359;-24
2021/03/28 03:31:30;;;;;;;8.90;4.93;;;;;;;0.38;100.00;99478.51;3527429;82;44570;-24
2021/03/28 03:37:06;;;;;;;10.47;5.00;;;;;;;0.42;100.00;99480.55;3528388;82;43338;-23
2021/03/28 03:42:37;;;;;;;10.13;4.77;;;;;;;0.45;100.00;99472.46;3527440;82;44042;-22
2021/03/28 03:47:46;;;;;;;9.73;4.87;;;;;;;0.45;100.00;99481.29;3527976;82;43605;-22
2021/03/28 03:53:06;;;;;;;7.93;4.70;;;;;;;0.49;100.00;99485.10;3528514;82;44129;-24
2021/03/28 03:58:28;;;;;;;13.23;4.97;;;;;;;0.47;100.00;99486.98;3528339;82;43325;-24
2021/03/28 04:03:37;;;;;;;10.63;5.67;;;;;;;0.55;100.00;99492.31;3528507;82;44240;-24
2021/03/28 04:08:58;;;;;;;7.30;4.90;;;;;;;0.52;100.00;99479.22;3528904;82;43683;-24
2021/03/28 04:14:17;;;;;;;9.30;4.93;;;;;;;0.56;100.00;99479.45;3526454;82;44121;-23
2021/03/28 04:19:32;;;;;;;9.33;5.00;;;;;;;0.61;100.00;99482.76;3559035;81;43385;-25
2021/03/28 04:24:43;;;;;;;10.00;5.30;;;;;;;0.60;100.00;99473.08;3586676;81;43990;-24
2021/03/28 04:29:52;;;;;;;11.30;5.00;;;;;;;0.60;100.00;99462.92;3576097;81;43381;-24
2021/03/28 04:35:09;;;;;;;7.23;4.60;;;;;;;0.57;100.00;99453.81;3573873;81;43321;-24
2021/03/28 04:40:35;;;;;;;9.90;5.23;;;;;;;0.62;100.00;99465.04;3575544;83;43306;-22
2021/03/28 04:46:19;;;;;;;10.07;5.20;;;;;;;0.63;100.00;99470.73;3575171;82;43451;-25
2021/03/28 04:51:53;;;;;;;9.33;4.70;;;;;;;0.66;100.00;99470.60;3638134;80;43702;-22
2021/03/28 04:57:24;;;;;;;10.73;5.03;;;;;;;0.71;100.00;99473.03;3555897;81;44880;-24
2021/03/28 05:02:39;;;;;;;9.63;4.90;;;;;;;0.67;100.00;99484.71;3578929;81;44452;-30
2021/03/28 05:08:15;;;;;;;11.07;4.83;;;;;;;0.69;100.00;99479.75;3576444;81;43603;-30
2021/03/28 05:14:15;;;;;;;10.40;4.83;;;;;;;0.70;100.00;99485.91;3571008;81;43694;-30
2021/03/28 05:20:07;;;;;;;9.90;5.20;;;;;;;0.80;100.00;99488.98;3521651;81;44083;-32
2021/03/28 05:25:37;;;;;;;10.27;5.07;;;;;;;0.78;100.00;99488.20;3613124;80;44440;-31
2021/03/28 05:31:24;;;;;;;10.43;5.10;;;;;;;0.82;100.00;99481.82;3573145;81;43299;-31
2021/03/28 05:36:59;;;;;;;9.90;5.37;;;;;;;0.82;100.00;99488.45;3571829;81;43226;-32
2021/03/28 05:42:26;;;;;;;10.13;5.87;;;;;;;0.86;100.00;99492.66;3571699;81;44570;-32
2021/03/28 05:47:55;;;;;;;9.33;5.40;;;;;;;0.83;100.00;99494.12;3568278;81;44089;-31
2021/03/28 05:53:39;;;;;;;10.80;5.90;;;;;;;0.90;100.00;99504.38;3570872;81;44046;-31
2021/03/28 05:59:20;;;;;;;11.77;5.67;;;;;;;1.04;100.00;99525.42;3577021;81;44689;-31
2021/03/28 06:04:56;;;;;;;12.57;6.37;;;;;;;1.20;100.00;99516.24;3532198;81;43587;-31
2021/03/28 06:10:35;;;;;;;13.27;6.13;;;;;;;1.35;100.00;99509.34;3576128;81;43739;-30
2021/03/28 06:15:50;;;;;;;11.73;5.10;;;;;;;1.42;100.00;99515.19;3576967;81;43357;-30
2021/03/28 06:21:15;;;;;;;12.03;5.90;;;;;;;1.46;100.00;99516.31;3576268;81;43056;-30
2021/03/28 06:26:38;;;;;;;17.40;6.67;;;;;;;1.59;100.00;99527.17;3552733;79;44449;-30
2021/03/28 06:32:27;;;;;;;10.60;5.87;;;;;;;1.75;100.00;99519.77;3659799;79;43396;-31
2021/03/28 06:38:01;;;;;;;10.57;5.83;;;;;;;1.91;100.00;99529.13;3600036;81;44579;-31
2021/03/28 06:43:59;;;;;;;10.93;5.80;;;;;;;1.99;100.00;99538.44;3660119;80;43723;-31
2021/03/28 06:49:25;;;;;;;9.50;6.00;;;;;;;2.09;100.00;99538.80;3624804;79;43963;-31
2021/03/28 06:55:13;;;;;;;12.03;6.53;;;;;;;2.25;100.00;99535.34;3596416;81;43462;-31
2021/03/28 07:00:54;;;;;;;12.80;6.57;;;;;;;2.33;100.00;99530.47;3679275;80;43725;-31
2021/03/28 07:06:05;;;;;;;12.53;6.20;;;;;;;2.49;100.00;99516.36;3678779;79;44069;-32
2021/03/28 07:11:50;;;;;;;11.73;6.37;;;;;;;2.57;100.00;99526.11;3676951;79;44619;-31
2021/03/28 07:17:24;;;;;;;12.07;7.07;;;;;;;2.64;100.00;99528.84;3678786;79;43359;-31
2021/03/28 07:22:39;;;;;;;11.63;6.83;;;;;;;2.82;100.00;99535.41;3628808;80;43710;-31
2021/03/28 07:28:11;;;;;;;9.00;6.20;;;;;;;3.06;100.00;99532.73;3628286;80;43382;-31
2021/03/28 07:33:43;;;;;;;10.97;6.30;;;;;;;3.30;100.00;99524.75;3608535;79;42499;-32
2021/03/28 07:39:37;;;;;;;10.80;6.43;;;;;;;3.42;100.00;99532.52;3628363;80;44552;-32
2021/03/28 07:45:24;;;;;;;11.33;6.53;;;;;;;3.51;100.00;99536.86;3633466;80;43364;-32
2021/03/28 07:50:50;;;;;;;11.30;6.37;;;;;;;3.60;100.00;99544.77;3619303;80;44479;-30
2021/03/28 07:56:02;;;;;;;11.67;6.10;;;;;;;3.74;100.00;99545.78;3636920;79;44047;-30
2021/03/28 08:01:36;;;;;;;11.43;6.67;;;;;;;4.04;100.00;99544.44;3630500;78;44011;-30
2021/03/28 08:07:17;;;;;;;11.80;6.53;;;;;;;4.34;100.00;99546.67;3626089;80;43710;-31
2021/03/28 08:13:01;;;;;;;10.33;6.80;;;;;;;4.72;100.00;99538.95;3589313;80;43710;-30
2021/03/28 08:18:20;;;;;;;12.53;6.73;;;;;;;4.88;100.00;99546.84;3613162;80;44069;-25
2021/03/28 08:24:02;;;;;;;10.53;6.57;;;;;;;5.00;100.00;99553.73;3632389;79;43669;-25
2021/03/28 08:29:36;;;;;;;12.27;6.37;;;;;;;5.07;100.00;99555.05;3628388;80;43393;-22
2021/03/28 08:35:14;;;;;;;12.40;6.80;;;;;;;5.07;100.00;99551.04;3630838;80;44401;-27
2021/03/28 08:40:41;;;;;;;13.67;7.07;;;;;;;5.13;100.00;99554.64;3604576;82;44128;-25
2021/03/28 08:46:26;;;;;;;10.30;6.00;;;;;;;5.32;100.00;99552.97;3628960;80;42910;-26
2021/03/28 08:51:55;;;;;;;12.67;6.60;;;;;;;5.35;100.00;99543.42;3620106;80;44403;-25
2021/03/28 08:57:22;;;;;;;10.80;6.33;;;;;;;5.47;100.00;99552.44;3627204;80;44108;-25
2021/03/28 09:02:39;;;;;;;9.83;6.60;;;;;;;5.71;100.00;99550.44;3627232;80;44375;-25
2021/03/28 09:07:50;;;;;;;10.90;5.73;;;;;;;5.89;100.00;99546.17;3629060;81;44545;-25
2021/03/28 09:13:01;;;;;;;11.97;5.87;;;;;;;5.83;100.00;99548.28;3629017;80;43308;-25
2021/03/28 09:18:25;;;;;;;10.48;5.78;;;;;;;5.91;100.00;99554.95;3628995;80;42887;-25
2021/03/28 09:23:42;;;;;;;12.43;6.63;;;;;;;5.91;100.00;99561.64;3625729;80;43321;-25
2021/03/28 09:28:54;;;;;;;12.13;6.33;;;;;;;5.93;100.00;99561.06;3631005;80;44040;-30
2021/03/28 09:34:27;;;;;;;10.87;5.60;;;;;;;5.89;100.00;99567.56;3629398;80;44640;-30
2021/03/28 09:39:58;;;;;;;12.43;5.87;;;;;;;5.90;100.00;99571.95;3624706;80;43109;-30
2021/03/28 09:45:56;;;;;;;11.35;6.67;;;;;;;5.97;100.00;99559.87;3621763;80;43436;-30
2021/03/28 09:51:32;;;;;;;9.98;5.42;;;;;;;6.23;100.00;99553.27;3626840;80;43951;-30
2021/03/28 09:56:54;;;;;;;11.00;5.57;;;;;;;6.33;100.00;99553.00;3586739;80;43472;-30
2021/03/28 10:02:30;;;;;;;10.93;5.73;;;;;;;6.61;100.00;99551.92;3625457;80;42424;-25
2021/03/28 10:07:43;;;;;;;9.43;5.45;;;;;;;7.00;100.00;99555.88;3626933;80;44054;-26
2021/03/28 10:12:58;;;;;;;8.77;5.17;;;;;;;7.24;100.00;99563.12;3628815;80;44017;-26
2021/03/28 10:18:11;;;;;;;7.87;4.73;;;;;;;7.37;100.00;99553.21;3626147;80;44093;-26
2021/03/28 10:23:34;;;;;;;10.78;4.85;;;;;;;7.44;100.00;99545.57;3642454;80;43282;-25
2021/03/28 10:28:55;;;;;;;7.40;4.85;;;;;;;7.54;100.00;99552.46;3643507;80;43994;-25
2021/03/28 10:34:24;;;;;;;7.42;4.60;;;;;;;7.88;100.00;99549.09;3645181;80;43933;-25
2021/03/28 10:39:42;;;;;;;12.05;5.25;;;;;;;8.09;100.00;99545.23;3644493;80;43999;-25
2021/03/28 10:45:13;;;;;;;10.43;4.67;;;;;;;8.00;100.00;99532.89;3646328;80;43460;-27
2021/03/28 10:50:50;;;;;;;8.48;4.62;;;;;;;8.18;100.00;99533.31;3645492;81;44051;-26
2021/03/28 10:56:32;;;;;;;7.05;4.65;;;;;;;8.51;100.00;99522.78;3642402;81;43614;-26
2021/03/28 11:02:13;;;;;;;12.70;5.03;;;;;;;8.61;100.00;99519.73;3645442;81;43452;-26
2021/03/28 11:07:39;;;;;;;10.08;5.03;;;;;;;8.62;100.00;99517.88;3645082;80;43431;-26
2021/03/28 11:13:12;;;;;;;5.72;4.10;;;;;;;8.76;100.00;99512.77;3645978;80;43807;-26
2021/03/28 11:18:35;;;;;;;10.15;4.75;;;;;;;9.09;100.00;99516.40;3652555;80;44410;-26
2021/03/28 11:24:01;;;;;;;6.87;4.12;;;;;;;9.22;93.54;99509.05;3649690;80;44106;-26
2021/03/28 11:29:48;;;;;;;6.27;3.77;;;;;;;9.53;95.64;99498.91;3655128;80;43632;-26
2021/03/28 11:35:04;;;;;;;7.00;3.98;;;;;;;9.72;93.14;99502.25;3654605;80;44032;-26
2021/03/28 11:40:35;;;;;;;7.60;3.80;;;;;;;10.15;90.93;99485.16;3658929;80;43443;-26
2021/03/28 11:45:43;;;;;;;9.73;4.12;;;;;;;10.27;90.91;99485.08;3657522;80;43340;-26
2021/03/28 11:50:53;;;;;;;5.25;2.37;;;;;;;10.33;92.81;99482.70;3660926;80;43473;-26
2021/03/28 11:56:01;;;;;;;5.20;3.05;;;;;;;10.29;88.95;99482.60;3655681;80;43158;-26
2021/03/28 12:01:09;;;;;;;5.28;3.15;;;;;;;10.16;91.10;99482.83;3659727;80;43346;-26
2021/03/28 12:06:49;;;;;;;6.08;2.85;;;;;;;10.21;88.69;99486.94;3660596;80;43472;-26
2021/03/28 12:11:59;;;;;;;4.28;1.95;;;;;;;10.45;82.71;99475.41;3663091;80;44016;-26
2021/03/28 12:17:36;;;;;;;3.85;2.25;;;;;;;10.60;76.70;99469.66;3655326;80;44187;-26
2021/03/28 12:23:19;;;;;;;4.92;2.27;;;;;;;10.95;78.54;99465.66;3651870;80;44049;-26
2021/03/28 12:28:32;;;;;;;3.70;1.80;;;;;;;10.95;74.60;99467.85;3627950;80;44909;-26
2021/03/28 12:33:56;;;;;;;3.85;2.00;;;;;;;11.15;71.23;99462.52;3640133;80;44026;-27
2021/03/28 12:39:15;;;;;;;4.72;2.08;;;;;;;10.92;71.10;99460.54;3640696;81;44380;-26
2021/03/28 12:44:31;;;;;;;5.37;2.10;;;;;;;10.94;72.98;99449.12;3642953;79;44128;-26
2021/03/28 12:49:53;;;;;;;6.10;2.08;;;;;;;10.90;70.83;99431.03;3639739;80;43251;-27
2021/03/28 12:55:33;;;;;;;4.62;2.30;;;;;;;10.85;69.17;99423.84;3638433;80;43476;-28
2021/03/28 13:01:11;;;;;;;4.97;2.27;;;;;;;11.36;71.23;99420.56;3637870;80;45325;-26
2021/03/28 13:06:40;;;;;;;3.02;1.92;;;;;;;11.67;69.85;99422.26;3611214;81;43558;-26
2021/03/28 13:11:50;;;;;;;3.98;1.75;;;;;;;11.59;67.12;99422.97;3645566;81;43544;-28
2021/03/28 13:16:59;;;;;;;3.58;1.60;;;;;;;11.60;60.68;99420.63;3644202;80;43686;-25
2021/03/28 13:22:12;;;;;;;4.62;2.33;;;;;;;11.38;61.41;99417.23;3643686;79;44477;-28
2021/03/28 13:27:21;;;;;;;4.08;1.77;;;;;;;11.49;64.70;99414.90;3639147;80;44120;-28
2021/03/28 13:32:30;;;;;;;3.42;1.85;;;;;;;11.47;60.71;99431.73;3644385;79;44043;-25
2021/03/28 13:37:49;;;;;;;4.25;1.80;;;;;;;11.33;63.31;99424.92;3635359;80;44038;-27
2021/03/28 13:42:52;;;;;;;4.58;1.90;;;;;;;11.36;60.54;99425.12;3644406;80;43654;-25
2021/03/28 13:48:00;;;;;;;4.25;1.92;;;;;;;11.36;61.69;99414.33;3639202;80;43315;-25
2021/03/28 13:53:32;;;;;;;3.80;1.95;;;;;;;11.40;64.76;99421.16;3641732;80;43987;-25
2021/03/28 13:58:41;;;;;;;4.00;1.95;;;;;;;11.40;63.15;99403.11;3627297;80;44034;-25
2021/03/28 14:03:50;;;;;;;5.45;2.10;;;;;;;11.60;63.95;99404.95;3628302;80;44059;-25
2021/03/28 14:08:59;;;;;;;6.12;1.98;;;;;;;11.74;63.74;99395.54;3627415;80;44539;-25
2021/03/28 14:14:07;;;;;;;4.12;1.80;;;;;;;11.92;62.02;99389.77;3626039;80;43436;-28
2021/03/28 14:19:16;;;;;;;4.67;1.87;;;;;;;12.15;61.19;99378.63;3627321;80;43398;-25
2021/03/28 14:24:28;;;;;;;3.62;1.75;;;;;;;12.72;56.63;99372.23;3656851;79;43706;-28
2021/03/28 14:29:37;;;;;;;4.08;2.20;;;;;;;12.59;62.22;99366.69;3678888;79;43717;-25
2021/03/28 14:35:27;;;;;;;3.50;1.98;;;;;;;12.37;61.45;99365.73;3678211;79;44486;-28
2021/03/28 14:40:45;;;;;;;3.77;2.08;;;;;;;12.33;63.13;99365.19;3679690;80;43995;-28
2021/03/28 14:46:03;;;;;;;4.53;2.00;;;;;;;12.29;57.78;99362.42;3678394;79;44494;-28
2021/03/28 14:51:13;;;;;;;4.05;1.80;;;;;;;12.20;63.64;99360.63;3679534;79;43627;-26
2021/03/28 14:56:38;;;;;;;4.37;1.80;;;;;;;11.99;57.97;99354.44;3678845;80;43376;-28
2021/03/28 15:01:51;;;;;;;4.37;2.22;;;;;;;12.25;57.68;99361.02;3683690;79;44039;-25
2021/03/28 15:07:28;;;;;;;4.90;1.65;;;;;;;12.20;56.13;99361.98;3677134;79;44136;-28
2021/03/28 15:12:37;;;;;;;4.10;1.65;;;;;;;12.11;56.50;99369.11;3676975;79;43425;-28
2021/03/28 15:17:46;;;;;;;2.50;1.77;;;;;;;12.08;57.74;99360.81;3680599;79;44222;-27
2021/03/28 15:22:56;;;;;;;3.95;1.70;;;;;;;12.04;57.81;99357.20;3673565;79;43399;-28
2021/03/28 15:28:06;;;;;;;2.67;1.52;;;;;;;12.01;54.77;99351.58;3624644;80;43690;-28
2021/03/28 15:33:24;;;;;;;3.42;1.37;;;;;;;12.02;55.35;99358.20;3628742;80;43372;-28
2021/03/28 15:39:05;;;;;;;3.47;1.40;;;;;;;12.03;56.13;99360.39;3624183;80;43621;-25
2021/03/28 15:44:42;;;;;;;4.12;1.77;;;;;;;12.01;55.60;99370.48;3608417;80;44035;-28
2021/03/28 15:50:23;;;;;;;3.30;1.72;;;;;;;11.91;55.79;99375.03;3617055;80;44553;-27
2021/03/28 15:55:42;;;;;;;3.95;1.55;;;;;;;11.80;54.45;99377.42;3628124;80;44024;-28
2021/03/28 16:00:54;;;;;;;3.67;1.70;;;;;;;11.77;56.11;99379.06;3630736;80;44051;-31
2021/03/28 16:06:10;;;;;;;4.03;1.52;;;;;;;11.78;59.70;99376.72;3630142;80;43701;-34
2021/03/28 16:11:19;;;;;;;3.02;1.40;;;;;;;11.79;57.45;99368.97;3626851;80;44069;-33
2021/03/28 16:16:43;;;;;;;4.12;1.70;;;;;;;11.78;58.13;99355.12;3628903;80;43409;-31
2021/03/28 16:22:02;;;;;;;4.22;1.50;;;;;;;11.82;59.75;99348.41;3627478;80;44583;-31
2021/03/28 16:27:13;;;;;;;4.55;2.08;;;;;;;11.75;58.30;99347.30;3673307;79;43275;-31
2021/03/28 16:32:37;;;;;;;3.65;1.92;;;;;;;11.68;59.25;99331.70;3678700;79;43460;-34
2021/03/28 16:37:51;;;;;;;4.42;2.30;;;;;;;11.64;58.64;99328.09;3676401;79;44305;-32
2021/03/28 16:43:03;;;;;;;5.75;2.60;;;;;;;11.54;61.10;99322.20;3675527;80;44525;-27
2021/03/28 16:48:16;;;;;;;6.90;2.62;;;;;;;11.49;63.56;99306.09;3679483;79;43380;-27
2021/03/28 16:53:44;;;;;;;5.70;2.62;;;;;;;11.35;62.26;99278.56;3678100;79;43713;-27
2021/03/28 16:58:53;;;;;;;4.80;2.02;;;;;;;11.30;62.12;99305.14;3677443;80;43361;-27
2021/03/28 17:04:22;;;;;;;4.50;2.30;;;;;;;11.18;64.09;99311.68;3677021;79;44461;-27
2021/03/28 17:09:32;;;;;;;4.53;2.27;;;;;;;11.07;65.41;99312.19;3678111;79;43669;-26
2021/03/28 17:15:00;;;;;;;2.90;1.85;;;;;;;10.99;63.55;99312.54;3679716;80;44003;-26
2021/03/28 17:20:18;;;;;;;3.98;1.72;;;;;;;10.94;65.02;99309.76;3675919;79;43721;-27
2021/03/28 17:25:50;;;;;;;5.92;2.20;;;;;;;10.86;65.04;99312.84;3680620;79;44018;-27
2021/03/28 17:30:59;;;;;;;5.12;2.70;;;;;;;10.81;67.54;99323.17;3678973;79;45127;-26
2021/03/28 17:36:40;;;;;;;6.05;3.00;;;;;;;10.69;66.56;99326.00;3729162;77;43116;-27
2021/03/28 17:41:50;;;;;;;4.70;2.70;;;;;;;10.66;69.94;99325.44;3703939;78;44006;-27
2021/03/28 17:47:01;;;;;;;4.62;2.80;;;;;;;10.57;71.63;99337.89;3721454;78;44126;-26
2021/03/28 17:52:29;;;;;;;3.83;2.17;;;;;;;10.44;70.31;99336.30;3691395;78;44003;-27
2021/03/28 17:57:41;;;;;;;4.62;1.80;;;;;;;10.26;73.36;99342.80;3720565;78;44474;-27
2021/03/28 18:02:50;;;;;;;628.80;450.25;;;;;;;10.22;70.90;99348.13;3695382;79;44218;-27
2021/03/28 18:08:00;;;;;;;439.00;318.33;;;;;;;10.22;70.12;99349.47;3727688;78;44038;-27
2021/03/28 18:13:10;;;;;;;69.85;50.75;;;;;;;10.31;72.95;99357.20;3722218;78;44063;-28
2021/03/28 18:22:48;;;;;;;48.68;42.40;;;;;;;10.02;74.10;99360.66;4021837;71;32783;-25
2021/03/28 18:27:54;;;;;;;11.12;8.40;;;;;;;9.95;75.19;99360.81;3913043;74;44001;-25
2021/03/28 18:33:14;;;;;;;7.28;4.65;;;;;;;9.91;72.53;99363.43;4034461;72;43450;-25
2021/03/28 18:38:51;;;;;;;38.58;34.90;;;;;;;10.08;74.66;99369.52;4043215;71;42822;-25
2021/03/28 18:44:28;;;;;;;50.17;35.52;;;;;;;10.14;74.22;99374.86;4044334;70;43328;-25
2021/03/28 18:49:40;;;;;;;20.12;11.63;;;;;;;10.09;75.09;99381.16;4007988;72;43260;-25
2021/03/28 18:54:48;;;;;;;13.58;8.00;;;;;;;10.17;74.47;99387.55;4009243;71;43401;-25
2021/03/28 19:00:23;;;;;;;34.78;26.52;;;;;;;10.10;73.78;99392.30;4069596;72;44074;-25
2021/03/28 19:05:35;;;;;;;14.65;9.55;;;;;;;10.25;72.91;99392.78;4078660;72;43304;-25
2021/03/28 19:10:43;;;;;;;31.52;25.48;;;;;;;10.29;72.41;99399.61;4058731;72;44189;-25
2021/03/28 19:15:51;;;;;;;259.23;191.70;;;;;;;10.30;69.76;99405.33;4047535;71;44064;-24
2021/03/28 19:21:29;;;;;;;13.38;9.80;;;;;;;10.25;69.95;99398.16;4030647;72;43357;-23
2021/03/28 19:26:40;;;;;;;14.78;8.73;;;;;;;10.20;72.25;99409.83;3812836;74;44083;-24
2021/03/28 19:31:49;;;;;;;6.28;3.60;;;;;;;10.30;67.31;99426.88;3796917;76;44041;-24
2021/03/28 19:37:00;;;;;;;7.08;3.77;;;;;;;10.25;68.26;99423.75;3798793;76;44131;-23
2021/03/28 19:42:09;;;;;;;14.03;9.20;;;;;;;10.15;70.01;99431.77;3846942;76;43145;-23
2021/03/28 19:47:19;;;;;;;19.48;10.55;;;;;;;10.20;69.06;99432.23;3803391;77;44051;-24
2021/03/28 19:52:25;;;;;;;10.75;5.05;;;;;;;10.37;66.65;99434.80;3838513;76;43326;-24
2021/03/28 19:57:33;;;;;;;11.30;4.92;;;;;;;10.21;72.04;99433.08;3811266;76;44012;-23
2021/03/28 20:02:42;;;;;;;8.15;4.62;;;;;;;9.98;76.21;99433.23;3773297;77;43818;-23
2021/03/28 20:08:15;;;;;;;4.42;2.65;;;;;;;9.87;77.23;99440.91;3789024;77;42909;-23
2021/03/28 20:13:24;;;;;;;7.72;3.12;;;;;;;9.73;77.82;99429.12;3841240;76;44457;-24
2021/03/28 20:18:30;;;;;;;8.13;3.22;;;;;;;9.76;77.75;99431.05;3773016;77;44413;-24
2021/03/28 20:23:36;;;;;;;5.05;3.27;;;;;;;9.69;79.67;99435.27;3699962;79;43719;-25
2021/03/28 20:29:02;;;;;;;7.67;3.00;;;;;;;9.54;80.57;99426.62;3731895;79;43416;-25
2021/03/28 20:34:12;;;;;;;5.25;2.70;;;;;;;9.55;79.45;99433.25;3769687;78;44073;-23
2021/03/28 20:39:21;;;;;;;4.55;2.77;;;;;;;9.60;78.13;99430.64;3740490;78;43445;-24
2021/03/28 20:44:29;;;;;;;5.80;2.92;;;;;;;9.56;79.07;99435.43;3748612;78;43234;-24
2021/03/28 20:49:36;;;;;;;6.67;2.90;;;;;;;9.56;76.33;99433.61;3802677;76;44056;-23
2021/03/28 20:54:42;;;;;;;5.05;2.83;;;;;;;9.55;75.80;99435.94;3792594;77;43357;-23
2021/03/28 20:59:50;;;;;;;6.62;3.00;;;;;;;9.52;78.07;99435.34;3787096;77;43346;-23
2021/03/28 21:04:58;;;;;;;4.30;3.00;;;;;;;9.49;79.28;99436.44;3800935;76;44065;-24
2021/03/28 21:10:08;;;;;;;4.95;2.77;;;;;;;9.44;79.96;99442.71;3852180;76;43685;-24
2021/03/28 21:15:14;;;;;;;5.77;3.30;;;;;;;9.42;79.93;99444.67;3859501;76;44484;-24
2021/03/28 21:20:22;;;;;;;5.22;3.08;;;;;;;9.37;81.91;99441.50;3771943;77;44563;-24
2021/03/28 21:25:28;;;;;;;6.55;3.50;;;;;;;9.33;83.01;99449.48;3808828;76;44482;-24
2021/03/28 21:30:34;;;;;;;7.53;3.40;;;;;;;9.33;84.08;99446.80;3852733;76;43682;-24
2021/03/28 21:35:41;;;;;;;5.42;2.95;;;;;;;9.28;82.29;99438.24;3796421;77;44095;-24
2021/03/28 21:40:56;;;;;;;5.25;3.20;;;;;;;9.24;81.46;99439.83;3800009;77;44150;-24
2021/03/28 21:46:02;;;;;;;7.35;3.08;;;;;;;9.20;83.47;99441.09;3798951;77;44216;-24
2021/03/28 21:51:10;;;;;;;5.53;3.27;;;;;;;9.18;84.06;99450.24;3832315;76;43682;-24
2021/03/28 21:56:16;;;;;;;4.17;2.87;;;;;;;9.15;84.03;99444.64;3847607;76;43759;-24
2021/03/28 22:01:28;;;;;;;7.30;3.05;;;;;;;9.14;84.16;99445.61;3797170;77;44138;-24
2021/03/28 22:06:40;;;;;;;4.78;2.95;;;;;;;9.10;84.27;99445.53;3793800;77;43176;-24
2021/03/28 22:11:48;;;;;;;4.53;2.63;;;;;;;9.08;82.92;99446.98;3789809;77;44091;-24
2021/03/28 22:16:56;;;;;;;4.33;2.50;;;;;;;9.13;82.93;99442.56;3801297;77;43697;-24
2021/03/28 22:22:08;;;;;;;6.00;2.50;;;;;;;9.11;83.38;99447.23;3750662;78;44240;-24
2021/03/28 22:27:18;;;;;;;4.08;2.47;;;;;;;9.10;83.44;99451.74;3830889;76;44055;-24
2021/03/28 22:32:29;;;;;;;3.77;2.40;;;;;;;9.09;84.29;99450.03;3788352;77;44007;-24
2021/03/28 22:37:36;;;;;;;5.83;2.65;;;;;;;9.10;84.14;99455.77;3793414;77;43632;-24
2021/03/28 22:42:46;;;;;;;6.40;2.70;;;;;;;9.12;83.85;99450.77;3798579;77;44048;-24
2021/03/28 22:47:56;;;;;;;5.55;2.67;;;;;;;9.06;84.22;99455.66;3806048;77;44041;-24
2021/03/28 22:53:02;;;;;;;4.35;2.35;;;;;;;9.07;84.23;99457.87;3797400;76;42851;-24
2021/03/28 22:58:10;;;;;;;8.00;3.08;;;;;;;9.02;85.31;99464.09;3742585;77;43448;-24
2021/03/28 23:03:19;;;;;;;4.10;2.20;;;;;;;9.00;85.60;99453.95;3745062;78;44048;-24
2021/03/28 23:08:25;;;;;;;3.25;2.22;;;;;;;8.99;86.01;99458.49;3784489;77;43674;-24
2021/03/28 23:13:38;;;;;;;3.37;2.35;;;;;;;9.00;84.99;99458.86;3785198;76;43052;-24
2021/03/28 23:18:44;;;;;;;8.20;3.50;;;;;;;8.99;84.69;99459.00;3784156;76;43140;-24
2021/03/28 23:23:50;;;;;;;5.30;2.35;;;;;;;8.99;85.68;99450.94;3815825;76;43206;-24
2021/03/28 23:28:56;;;;;;;4.12;2.30;;;;;;;8.95;83.63;99457.02;3781594;76;43677;-24
2021/03/28 23:34:02;;;;;;;4.28;2.55;;;;;;;9.02;83.69;99459.59;3800445;77;43356;-24
2021/03/28 23:39:09;;;;;;;6.28;2.40;;;;;;;9.05;83.43;99462.52;3795029;77;43486;-24
2021/03/28 23:44:19;;;;;;;5.72;2.25;;;;;;;9.07;82.38;99467.28;3781767;77;43483;-24
2021/03/28 23:49:28;;;;;;;6.42;2.50;;;;;;;9.05;82.41;99465.20;3840605;76;43367;-24
2021/03/28 23:54:36;;;;;;;4.05;2.22;;;;;;;9.11;82.76;99468.74;3812350;77;43106;-24
2021/03/28 23:59:43;;;;;;;5.15;2.40;;;;;;;9.10;82.33;99464.34;3805393;77;44017;-25
